createdAt,value
2022-08-06T00:00:07.541Z,12.52
2022-08-06T00:02:31.087Z,10.95
2022-08-06T00:05:01.715Z,10.05
2022-08-06T00:07:45.370Z,11.68
2022-08-06T00:10:17.964Z,9.73
2022-08-06T00:12:48.622Z,8.98
2022-08-06T00:15:19.981Z,7.88
2022-08-06T00:18:07.803Z,9.50
2022-08-06T00:20:41.983Z,7.07
2022-08-06T00:23:17.096Z,6.30
2022-08-06T00:25:52.685Z,7.97
2022-08-06T00:28:31.591Z,7.93
2022-08-06T00:31:06.153Z,7.03
2022-08-06T00:33:43.896Z,6.78
2022-08-06T00:36:24.828Z,5.95
2022-08-06T00:38:55.462Z,6.63
2022-08-06T00:41:30.459Z,6.57
2022-08-06T00:44:12.348Z,6.30
2022-08-06T00:46:41.200Z,6.80
2022-08-06T00:49:10.985Z,6.63
2022-08-06T00:51:51.541Z,6.07
2022-08-06T00:54:28.547Z,6.00
2022-08-06T00:57:07.988Z,6.65
2022-08-06T00:59:43.037Z,5.63
2022-08-06T01:02:14.701Z,7.75
2022-08-06T01:04:43.636Z,5.85
2022-08-06T01:07:12.197Z,6.67
2022-08-06T01:09:57.171Z,5.90
2022-08-06T01:12:33.346Z,5.75
2022-08-06T01:15:05.282Z,5.47
2022-08-06T01:17:49.506Z,5.60
2022-08-06T01:22:01.097Z,5.55
2022-08-06T01:23:40.022Z,5.60
2022-08-06T01:26:28.946Z,5.43
2022-08-06T01:29:02.269Z,5.47
2022-08-06T01:31:38.747Z,5.40
2022-08-06T01:34:13.440Z,6.27
2022-08-06T01:36:48.507Z,5.75
2022-08-06T01:39:22.867Z,4.90
2022-08-06T01:42:10.424Z,5.00
2022-08-06T01:44:45.045Z,5.40
2022-08-06T01:47:19.961Z,5.78
2022-08-06T01:50:00.774Z,5.40
2022-08-06T01:52:37.253Z,5.28
2022-08-06T01:55:12.714Z,5.43
2022-08-06T01:58:08.537Z,5.68
2022-08-06T02:00:35.312Z,5.35
2022-08-06T02:03:10.152Z,7.00
2022-08-06T02:05:44.841Z,5.83
2022-08-06T02:08:37.304Z,4.97
2022-08-06T02:11:24.104Z,5.35
2022-08-06T02:14:01.438Z,5.90
2022-08-06T02:16:36.099Z,6.03
2022-08-06T02:19:15.621Z,6.00
2022-08-06T02:21:50.393Z,5.63
2022-08-06T02:24:23.658Z,5.90
2022-08-06T02:26:53.720Z,6.40
2022-08-06T02:29:23.086Z,6.07
2022-08-06T02:32:02.064Z,6.77
2022-08-06T02:34:31.415Z,6.37
2022-08-06T02:37:05.894Z,5.67
2022-08-06T02:39:41.178Z,5.43
2022-08-06T02:42:23.245Z,6.10
2022-08-06T02:45:00.619Z,6.30
2022-08-06T02:47:52.573Z,5.90
2022-08-06T02:50:36.725Z,5.87
2022-08-06T02:53:23.677Z,6.00
2022-08-06T02:55:57.454Z,5.77
2022-08-06T02:58:38.572Z,6.17
2022-08-06T03:01:11.764Z,5.97
2022-08-06T03:03:53.880Z,6.20
2022-08-06T03:06:30.649Z,5.47
2022-08-06T03:09:01.115Z,5.17
2022-08-06T03:11:33.407Z,5.60
2022-08-06T03:14:13.160Z,6.90
2022-08-06T03:16:53.363Z,6.20
2022-08-06T03:19:57.219Z,5.50
2022-08-06T03:22:36.230Z,6.00
2022-08-06T03:25:10.082Z,6.77
2022-08-06T03:27:43.346Z,6.07
2022-08-06T03:30:30.472Z,6.07
2022-08-06T03:33:07.489Z,5.73
2022-08-06T03:35:55.106Z,6.63
2022-08-06T03:38:29.089Z,5.77
2022-08-06T03:41:01.021Z,6.13
2022-08-06T03:43:55.839Z,5.90
2022-08-06T03:46:23.803Z,5.90
2022-08-06T03:48:56.634Z,6.20
2022-08-06T03:51:29.763Z,6.77
2022-08-06T03:54:30.379Z,5.50
2022-08-06T03:57:08.088Z,5.30
2022-08-06T03:59:44.150Z,5.40
2022-08-06T04:02:44.747Z,5.40
2022-08-06T04:05:17.258Z,5.60
2022-08-06T04:07:57.328Z,5.57
2022-08-06T04:10:33.904Z,5.57
2022-08-06T04:13:08.532Z,5.32
2022-08-06T04:15:56.627Z,5.60
2022-08-06T04:18:42.225Z,5.55
2022-08-06T04:22:58.180Z,5.95
2022-08-06T04:24:12.076Z,5.28
2022-08-06T04:26:42.216Z,5.85
2022-08-06T04:29:16.448Z,5.95
2022-08-06T04:32:12.711Z,5.63
2022-08-06T04:36:03.311Z,5.50
2022-08-06T04:37:26.046Z,5.10
2022-08-06T04:40:00.887Z,5.53
2022-08-06T04:42:29.686Z,5.28
2022-08-06T04:44:59.292Z,5.90
2022-08-06T04:47:41.769Z,5.15
2022-08-06T04:50:17.746Z,5.90
2022-08-06T04:52:52.322Z,5.75
2022-08-06T04:55:23.684Z,6.10
2022-08-06T04:57:56.336Z,5.97
2022-08-06T05:00:34.165Z,6.22
2022-08-06T05:03:15.345Z,5.95
2022-08-06T05:06:02.421Z,6.47
2022-08-06T05:08:39.400Z,6.20
2022-08-06T05:11:18.122Z,6.32
2022-08-06T05:13:48.710Z,6.82
2022-08-06T05:16:22.136Z,6.70
2022-08-06T05:19:19.656Z,6.20
2022-08-06T05:22:11.205Z,6.00
2022-08-06T05:25:00.849Z,6.18
2022-08-06T05:27:40.012Z,5.88
2022-08-06T05:30:17.716Z,6.20
2022-08-06T05:32:50.974Z,6.20
2022-08-06T05:35:22.906Z,5.60
2022-08-06T05:38:01.304Z,6.25
2022-08-06T05:40:53.686Z,6.18
2022-08-06T05:43:58.280Z,6.13
2022-08-06T05:46:17.781Z,6.55
2022-08-06T05:48:57.255Z,6.40
2022-08-06T05:51:45.835Z,6.35
2022-08-06T05:54:21.021Z,6.03
2022-08-06T05:56:53.745Z,6.00
2022-08-06T05:59:38.234Z,6.38
2022-08-06T06:02:19.216Z,6.13
2022-08-06T06:06:03.339Z,6.13
2022-08-06T06:08:08.122Z,7.10
2022-08-06T06:10:28.361Z,7.07
2022-08-06T06:12:57.343Z,5.38
2022-08-06T06:16:01.240Z,5.28
2022-08-06T06:18:34.023Z,5.20
2022-08-06T06:21:31.896Z,4.70
2022-08-06T06:24:08.404Z,4.78
2022-08-06T06:26:41.838Z,4.53
2022-08-06T06:29:15.745Z,3.42
2022-08-06T06:32:07.479Z,6.57
2022-08-06T06:34:48.600Z,4.55
2022-08-06T06:37:40.692Z,4.40
2022-08-06T06:40:21.246Z,4.18
2022-08-06T06:42:53.933Z,4.60
2022-08-06T06:46:10.088Z,4.55
2022-08-06T06:48:23.974Z,4.30
2022-08-06T06:51:01.596Z,4.60
2022-08-06T06:54:06.131Z,4.38
2022-08-06T06:56:32.192Z,3.10
2022-08-06T06:59:04.680Z,2.70
2022-08-06T07:01:42.299Z,3.05
2022-08-06T07:04:21.264Z,2.10
2022-08-06T07:06:57.684Z,2.30
2022-08-06T07:09:40.599Z,2.20
2022-08-06T07:12:25.352Z,2.10
2022-08-06T07:14:58.947Z,2.05
2022-08-06T07:17:46.795Z,2.35
2022-08-06T07:20:26.122Z,2.20
2022-08-06T07:24:08.595Z,4.80
2022-08-06T07:25:54.424Z,2.70
2022-08-06T07:28:28.092Z,2.30
2022-08-06T07:31:04.633Z,2.00
2022-08-06T07:33:42.865Z,2.47
2022-08-06T07:36:37.643Z,2.10
2022-08-06T07:39:14.462Z,2.10
2022-08-06T07:42:07.510Z,2.60
2022-08-06T07:44:54.859Z,2.20
2022-08-06T07:47:41.170Z,2.38
2022-08-06T07:50:18.545Z,2.22
2022-08-06T07:52:54.942Z,1.98
2022-08-06T07:55:31.450Z,2.20
2022-08-06T07:58:06.694Z,2.20
2022-08-06T08:00:39.809Z,2.30
2022-08-06T08:03:55.997Z,3.63
2022-08-06T08:06:25.567Z,9.63
2022-08-06T08:08:58.375Z,3.60
2022-08-06T08:11:37.613Z,2.08
2022-08-06T08:14:20.546Z,2.67
2022-08-06T08:16:51.697Z,2.40
2022-08-06T08:19:24.696Z,2.38
2022-08-06T08:21:57.457Z,2.33
2022-08-06T08:24:33.823Z,2.20
2022-08-06T08:27:21.856Z,2.20
2022-08-06T08:29:56.626Z,2.30
2022-08-06T08:32:26.880Z,6.57
2022-08-06T08:35:02.405Z,5.97
2022-08-06T08:37:32.749Z,5.78
2022-08-06T08:40:03.288Z,4.45
2022-08-06T08:42:38.595Z,5.82
2022-08-06T08:45:13.232Z,4.60
2022-08-06T08:47:53.715Z,4.18
2022-08-06T08:50:31.319Z,3.10
2022-08-06T08:53:04.454Z,3.53
2022-08-06T08:57:10.174Z,4.03
2022-08-06T08:58:43.771Z,4.57
2022-08-06T09:01:51.507Z,3.95
2022-08-06T09:04:07.036Z,10.85
2022-08-06T09:06:37.082Z,9.48
2022-08-06T09:09:06.861Z,4.78
2022-08-06T09:12:04.150Z,6.03
2022-08-06T09:14:28.234Z,5.53
2022-08-06T09:17:03.926Z,7.05
2022-08-06T09:19:37.432Z,7.53
2022-08-06T09:22:08.935Z,8.00
2022-08-06T09:24:39.244Z,8.50
2022-08-06T09:27:45.555Z,10.63
2022-08-06T09:30:11.581Z,9.85
2022-08-06T09:32:54.743Z,7.97
2022-08-06T09:35:44.537Z,9.88
2022-08-06T09:38:17.987Z,11.32
2022-08-06T09:41:15.267Z,6.88
2022-08-06T09:44:03.278Z,6.70
2022-08-06T09:46:43.985Z,4.18
2022-08-06T09:49:48.722Z,4.30
2022-08-06T09:52:17.342Z,4.47
2022-08-06T09:54:53.388Z,5.43
2022-08-06T09:57:33.178Z,7.53
2022-08-06T10:00:14.752Z,17.42
2022-08-06T10:02:50.625Z,8.40
2022-08-06T10:05:22.998Z,7.90
2022-08-06T10:08:08.185Z,12.35
2022-08-06T10:10:45.387Z,16.25
2022-08-06T10:13:20.600Z,11.60
2022-08-06T10:16:01.170Z,7.05
2022-08-06T10:18:55.088Z,8.93
2022-08-06T10:21:41.843Z,11.10
2022-08-06T10:24:14.513Z,10.20
2022-08-06T10:26:55.846Z,6.40
2022-08-06T10:29:25.929Z,4.38
2022-08-06T10:31:58.273Z,9.32
2022-08-06T10:34:31.259Z,15.40
2022-08-06T10:37:48.225Z,6.53
2022-08-06T10:40:07.633Z,5.40
2022-08-06T10:42:40.022Z,5.15
2022-08-06T10:45:13.222Z,5.78
2022-08-06T10:48:58.204Z,6.78
2022-08-06T10:50:44.587Z,23.02
2022-08-06T10:54:02.582Z,6.63
2022-08-06T10:56:13.085Z,5.20
2022-08-06T10:58:50.657Z,11.73
2022-08-06T11:01:36.725Z,21.25
2022-08-06T11:04:33.842Z,5.30
2022-08-06T11:08:14.449Z,8.18
2022-08-06T11:10:35.191Z,21.48
2022-08-06T11:13:14.444Z,11.30
2022-08-06T11:15:45.142Z,4.70
2022-08-06T11:18:16.199Z,5.97
2022-08-06T11:20:53.618Z,7.30
2022-08-06T11:23:58.364Z,8.18
2022-08-06T11:26:38.834Z,5.70
2022-08-06T11:29:15.760Z,7.10
2022-08-06T11:31:56.939Z,5.38
2022-08-06T11:34:51.323Z,4.85
2022-08-06T11:38:03.711Z,4.80
2022-08-06T11:40:59.802Z,5.18
2022-08-06T11:44:06.623Z,4.50
2022-08-06T11:46:39.366Z,4.28
2022-08-06T11:49:23.542Z,6.25
2022-08-06T11:52:06.496Z,4.90
2022-08-06T11:54:39.130Z,4.55
2022-08-06T11:57:42.103Z,4.20
2022-08-06T12:00:20.562Z,4.80
2022-08-06T12:02:59.549Z,4.25
2022-08-06T12:05:39.223Z,4.40
2022-08-06T12:08:42.600Z,4.65
2022-08-06T12:11:36.661Z,3.90
2022-08-06T12:14:33.861Z,3.70
2022-08-06T12:16:59.329Z,3.72
2022-08-06T12:19:28.118Z,3.92
2022-08-06T12:21:57.758Z,4.38
2022-08-06T12:24:45.426Z,4.28
2022-08-06T12:27:25.085Z,3.38
2022-08-06T12:29:59.466Z,4.15
2022-08-06T12:32:29.706Z,5.20
2022-08-06T12:35:01.339Z,22.80
2022-08-06T12:37:41.281Z,10.05
2022-08-06T12:40:28.880Z,6.18
2022-08-06T12:43:15.661Z,4.53
2022-08-06T12:46:06.891Z,4.85
2022-08-06T12:48:35.417Z,4.53
2022-08-06T12:51:11.659Z,4.90
2022-08-06T12:53:47.924Z,4.75
2022-08-06T12:56:29.362Z,4.05
2022-08-06T12:59:05.186Z,4.10
2022-08-06T13:02:07.684Z,4.10
2022-08-06T13:04:29.684Z,3.67
2022-08-06T13:07:02.943Z,3.67
2022-08-06T13:09:35.910Z,4.00
2022-08-06T13:12:19.935Z,4.03
2022-08-06T13:15:09.819Z,4.25
2022-08-06T13:18:03.206Z,3.97
2022-08-06T13:20:43.138Z,4.13
2022-08-06T13:23:22.557Z,3.60
2022-08-06T13:25:53.338Z,3.40
2022-08-06T13:28:29.372Z,3.75
2022-08-06T13:31:01.543Z,3.88
2022-08-06T13:33:32.092Z,4.20
2022-08-06T13:36:12.771Z,9.68
2022-08-06T13:38:42.552Z,6.82
2022-08-06T13:41:12.797Z,5.85
2022-08-06T13:43:50.749Z,4.20
2022-08-06T13:46:29.055Z,4.80
2022-08-06T13:49:02.035Z,3.72
2022-08-06T13:51:35.216Z,3.50
2022-08-06T13:54:13.991Z,3.45
2022-08-06T13:56:44.198Z,3.50
2022-08-06T13:59:19.078Z,3.75
2022-08-06T14:01:52.883Z,3.60
2022-08-06T14:04:25.413Z,3.70
2022-08-06T14:06:59.337Z,3.47
2022-08-06T14:09:58.256Z,4.30
2022-08-06T14:12:20.648Z,2.97
2022-08-06T14:14:50.914Z,3.60
2022-08-06T14:17:20.989Z,2.70
2022-08-06T14:20:17.688Z,2.50
2022-08-06T14:22:42.090Z,2.45
2022-08-06T14:25:12.018Z,2.60
2022-08-06T14:27:45.152Z,3.25
2022-08-06T14:30:25.680Z,2.85
2022-08-06T14:33:11.167Z,2.30
2022-08-06T14:35:50.920Z,2.72
2022-08-06T14:38:21.833Z,3.15
2022-08-06T14:41:51.227Z,2.60
2022-08-06T14:44:27.328Z,2.85
2022-08-06T14:46:56.069Z,3.80
2022-08-06T14:49:45.634Z,7.03
2022-08-06T14:52:24.074Z,3.22
2022-08-06T14:54:56.270Z,2.80
2022-08-06T14:58:03.495Z,3.00
2022-08-06T15:00:34.662Z,3.10
2022-08-06T15:03:07.896Z,3.35
2022-08-06T15:06:04.787Z,3.25
2022-08-06T15:08:32.985Z,3.80
2022-08-06T15:11:06.460Z,3.55
2022-08-06T15:13:42.882Z,4.25
2022-08-06T15:16:47.071Z,4.07
2022-08-06T15:19:20.724Z,24.42
2022-08-06T15:21:54.383Z,7.40
2022-08-06T15:24:25.217Z,6.18
2022-08-06T15:26:55.922Z,3.60
2022-08-06T15:29:25.703Z,4.00
2022-08-06T15:32:01.896Z,3.47
2022-08-06T15:34:31.388Z,4.07
2022-08-06T15:37:03.545Z,3.55
2022-08-06T15:39:51.506Z,3.33
2022-08-06T15:42:23.794Z,2.70
2022-08-06T15:44:53.285Z,3.13
2022-08-06T15:47:31.693Z,3.35
2022-08-06T15:50:04.346Z,3.20
2022-08-06T15:52:42.654Z,3.33
2022-08-06T15:55:16.220Z,3.30
2022-08-06T15:58:04.998Z,2.78
2022-08-06T16:00:36.599Z,3.08
2022-08-06T16:03:07.914Z,2.67
2022-08-06T16:06:09.625Z,2.78
2022-08-06T16:08:34.596Z,3.13
2022-08-06T16:11:09.655Z,3.10
2022-08-06T16:13:39.034Z,4.13
2022-08-06T16:16:08.315Z,3.10
2022-08-06T16:18:49.190Z,3.00
2022-08-06T16:21:23.014Z,2.50
2022-08-06T16:23:56.971Z,2.50
2022-08-06T16:26:41.875Z,2.40
2022-08-06T16:29:20.546Z,2.40
2022-08-06T16:31:53.773Z,2.28
2022-08-06T16:34:29.774Z,2.20
2022-08-06T16:37:00.251Z,2.50
2022-08-06T16:42:19.556Z,2.70
2022-08-06T16:45:01.184Z,2.47
2022-08-06T16:48:18.149Z,2.58
2022-08-06T16:50:26.213Z,2.72
2022-08-06T16:54:08.442Z,2.70
2022-08-06T16:56:01.311Z,3.00
2022-08-06T16:58:33.147Z,2.80
2022-08-06T17:02:15.617Z,4.70
2022-08-06T17:03:56.365Z,3.40
2022-08-06T17:06:29.551Z,2.65
2022-08-06T17:08:58.474Z,2.50
2022-08-06T17:11:52.094Z,3.90
2022-08-06T17:14:20.960Z,7.68
2022-08-06T17:16:50.580Z,6.72
2022-08-06T17:19:19.618Z,4.78
2022-08-06T17:21:58.491Z,8.43
2022-08-06T17:24:37.412Z,6.68
2022-08-06T17:27:10.257Z,6.30
2022-08-06T17:29:46.408Z,6.53
2022-08-06T17:32:30.165Z,6.82
2022-08-06T17:35:06.526Z,10.88
2022-08-06T17:37:51.499Z,13.43
2022-08-06T17:40:31.147Z,3.10
2022-08-06T17:43:12.945Z,3.17
2022-08-06T17:45:52.258Z,8.25
2022-08-06T17:48:32.529Z,3.97
2022-08-06T17:51:09.812Z,5.70
2022-08-06T17:53:51.896Z,8.60
2022-08-06T17:56:30.355Z,6.30
2022-08-06T17:59:16.863Z,5.88
2022-08-06T18:01:50.125Z,6.90
2022-08-06T18:04:21.868Z,10.07
2022-08-06T18:07:10.836Z,6.88
2022-08-06T18:10:08.593Z,6.38
2022-08-06T18:12:48.482Z,5.65
2022-08-06T18:15:19.887Z,4.32
2022-08-06T18:18:03.782Z,4.90
2022-08-06T18:20:38.239Z,5.63
2022-08-06T18:23:21.169Z,3.20
2022-08-06T18:25:56.096Z,3.20
2022-08-06T18:28:36.273Z,4.57
2022-08-06T18:31:11.214Z,3.40
2022-08-06T18:33:45.955Z,3.95
2022-08-06T18:36:16.919Z,3.08
2022-08-06T18:38:45.427Z,4.07
2022-08-06T18:41:16.689Z,3.80
2022-08-06T18:43:54.727Z,3.28
2022-08-06T18:46:57.214Z,4.30
2022-08-06T18:49:26.747Z,3.90
2022-08-06T18:52:16.642Z,3.95
2022-08-06T18:54:56.779Z,3.65
2022-08-06T18:57:37.883Z,28.02
2022-08-06T19:00:19.726Z,13.68
2022-08-06T19:02:51.060Z,5.68
2022-08-06T19:05:26.716Z,4.97
2022-08-06T19:07:58.485Z,5.88
2022-08-06T19:10:28.877Z,20.95
2022-08-06T19:12:57.685Z,19.40
2022-08-06T19:15:46.793Z,14.93
2022-08-06T19:18:17.951Z,25.67
2022-08-06T19:20:46.974Z,41.45
2022-08-06T19:24:00.513Z,51.05
2022-08-06T19:26:12.838Z,27.33
2022-08-06T19:28:49.055Z,17.52
2022-08-06T19:31:41.398Z,11.07
2022-08-06T19:34:14.367Z,11.00
2022-08-06T19:36:45.318Z,11.43
2022-08-06T19:39:54.097Z,11.57
2022-08-06T19:42:03.148Z,14.85
2022-08-06T19:45:04.463Z,12.77
2022-08-06T19:47:35.643Z,22.58
2022-08-06T19:50:12.394Z,9.50
2022-08-06T19:52:45.039Z,7.45
2022-08-06T19:56:08.215Z,4.63
2022-08-06T19:58:26.480Z,8.00
2022-08-06T20:01:04.131Z,8.65
2022-08-06T20:03:43.405Z,7.65
2022-08-06T20:06:29.850Z,7.18
2022-08-06T20:09:26.652Z,7.05
2022-08-06T20:12:04.142Z,5.13
2022-08-06T20:14:36.207Z,4.45
2022-08-06T20:17:04.825Z,4.25
2022-08-06T20:20:05.289Z,5.95
2022-08-06T20:22:23.399Z,8.35
2022-08-06T20:24:52.663Z,30.85
2022-08-06T20:27:38.445Z,22.45
2022-08-06T20:30:11.161Z,17.20
2022-08-06T20:32:41.164Z,16.45
2022-08-06T20:35:13.453Z,20.45
2022-08-06T20:37:52.332Z,20.67
2022-08-06T20:40:31.618Z,7.40
2022-08-06T20:44:04.680Z,8.02
2022-08-06T20:46:02.716Z,13.35
2022-08-06T20:48:31.977Z,17.02
2022-08-06T20:51:00.744Z,8.88
2022-08-06T20:53:32.939Z,6.97
2022-08-06T20:56:03.237Z,6.07
2022-08-06T20:58:32.620Z,6.43
2022-08-06T21:01:02.158Z,6.18
2022-08-06T21:05:13.528Z,8.00
2022-08-06T21:06:22.717Z,6.78
2022-08-06T21:08:52.987Z,8.18
2022-08-06T21:11:22.130Z,8.43
2022-08-06T21:13:59.601Z,9.50
2022-08-06T21:16:34.920Z,8.15
2022-08-06T21:19:07.076Z,7.75
2022-08-06T21:21:38.142Z,7.43
2022-08-06T21:24:09.534Z,9.50
2022-08-06T21:26:38.277Z,5.45
2022-08-06T21:29:41.968Z,6.30
2022-08-06T21:31:58.571Z,6.35
2022-08-06T21:34:27.962Z,6.63
2022-08-06T21:36:57.387Z,6.75
2022-08-06T21:39:52.210Z,4.88
2022-08-06T21:42:17.832Z,5.35
2022-08-06T21:44:47.875Z,3.30
2022-08-06T21:47:19.375Z,3.90
2022-08-06T21:52:27.553Z,2.97
2022-08-06T21:55:05.487Z,2.55
2022-08-06T21:57:48.144Z,3.58
2022-08-06T22:00:34.158Z,3.30
2022-08-06T22:03:07.048Z,3.33
2022-08-06T22:06:20.618Z,3.50
2022-08-06T22:08:34.832Z,3.30
2022-08-06T22:12:36.510Z,2.90
2022-08-06T22:13:58.686Z,2.85
2022-08-06T22:16:33.486Z,3.75
2022-08-06T22:19:03.238Z,3.10
2022-08-06T22:21:49.860Z,3.20
2022-08-06T22:24:22.892Z,2.80
2022-08-06T22:26:56.332Z,2.75
2022-08-06T22:29:27.828Z,2.60
2022-08-06T22:32:00.428Z,3.15
2022-08-06T22:34:36.149Z,4.43
2022-08-06T22:37:14.524Z,3.03
2022-08-06T22:39:47.108Z,2.70
2022-08-06T22:42:56.307Z,2.80
2022-08-06T22:45:47.463Z,2.80
2022-08-06T22:48:07.745Z,5.77
2022-08-06T22:50:37.183Z,2.80
2022-08-06T22:54:26.486Z,3.00
2022-08-06T22:55:56.765Z,3.57
2022-08-06T22:59:03.446Z,3.00
2022-08-06T23:02:03.678Z,3.70
2022-08-06T23:04:03.098Z,2.90
2022-08-06T23:06:32.238Z,3.97
2022-08-06T23:09:00.935Z,3.83
2022-08-06T23:11:32.638Z,3.30
2022-08-06T23:14:01.157Z,2.80
2022-08-06T23:16:32.479Z,2.70
2022-08-06T23:19:01.271Z,2.77
2022-08-06T23:22:00.122Z,3.23
2022-08-06T23:24:32.996Z,2.60
2022-08-06T23:27:16.429Z,2.90
2022-08-06T23:30:09.742Z,3.00
2022-08-06T23:32:41.008Z,2.97
2022-08-06T23:35:35.083Z,2.80
2022-08-06T23:38:05.748Z,4.17
2022-08-06T23:40:50.153Z,3.53
2022-08-06T23:43:22.591Z,2.43
2022-08-06T23:45:51.664Z,2.60
2022-08-06T23:48:21.397Z,2.30
2022-08-06T23:50:54.418Z,2.13
2022-08-06T23:54:07.431Z,2.13
2022-08-06T23:56:13.986Z,2.17
2022-08-06T23:58:49.010Z,2.03
